createdAt,value
2018-12-09T00:01:10.192Z,3.03
2018-12-09T00:03:41.527Z,5.83
2018-12-09T00:06:13.159Z,4.93
2018-12-09T00:08:47.270Z,3.93
2018-12-09T00:11:16.891Z,4.00
2018-12-09T00:13:46.666Z,3.70
2018-12-09T00:16:16.651Z,4.33
2018-12-09T00:18:46.170Z,4.00
2018-12-09T00:21:15.699Z,4.20
2018-12-09T00:23:45.274Z,8.80
2018-12-09T00:26:16.644Z,5.80
2018-12-09T00:28:46.186Z,4.33
2018-12-09T00:31:15.727Z,4.70
2018-12-09T00:33:45.247Z,5.50
2018-12-09T00:36:14.982Z,5.50
2018-12-09T00:38:45.417Z,3.90
2018-12-09T00:41:14.961Z,12.50
2018-12-09T00:43:45.233Z,10.67
2018-12-09T00:46:15.075Z,8.53
2018-12-09T00:48:44.705Z,5.90
2018-12-09T00:51:14.271Z,3.93
2018-12-09T00:53:43.903Z,13.97
2018-12-09T00:56:13.490Z,4.60
2018-12-09T00:58:43.046Z,4.77
2018-12-09T01:01:12.700Z,5.53
2018-12-09T01:03:42.846Z,3.37
2018-12-09T01:06:12.435Z,4.97
2018-12-09T01:08:42.103Z,5.43
2018-12-09T01:11:11.703Z,7.90
2018-12-09T01:13:41.343Z,4.10
2018-12-09T01:16:10.931Z,4.37
2018-12-09T01:18:40.486Z,4.70
2018-12-09T01:21:10.116Z,8.83
2018-12-09T01:23:39.707Z,6.13
2018-12-09T01:26:09.283Z,17.77
2018-12-09T01:28:38.874Z,3.80
2018-12-09T01:31:08.470Z,3.20
2018-12-09T01:33:38.051Z,3.20
2018-12-09T01:36:07.731Z,3.50
2018-12-09T01:38:37.304Z,4.77
2018-12-09T01:41:06.911Z,4.10
2018-12-09T01:43:36.495Z,4.83
2018-12-09T01:46:06.100Z,7.47
2018-12-09T01:48:35.709Z,5.07
2018-12-09T01:51:05.294Z,5.47
2018-12-09T01:54:36.203Z,5.47
2018-12-09T01:57:05.818Z,4.67
2018-12-09T01:59:36.888Z,5.77
2018-12-09T02:02:06.771Z,4.60
2018-12-09T02:04:36.283Z,4.17
2018-12-09T02:07:06.464Z,4.80
2018-12-09T02:09:36.311Z,4.33
2018-12-09T02:12:06.687Z,8.77
2018-12-09T02:14:36.279Z,5.90
2018-12-09T02:17:05.733Z,4.50
2018-12-09T02:19:35.452Z,5.97
2018-12-09T02:22:04.623Z,5.03
2018-12-09T02:24:34.062Z,4.40
2018-12-09T02:27:03.250Z,6.80
2018-12-09T02:29:32.735Z,7.50
2018-12-09T02:32:02.325Z,4.70
2018-12-09T02:34:31.894Z,9.10
2018-12-09T02:37:01.434Z,4.17
2018-12-09T02:39:30.967Z,5.50
2018-12-09T02:42:00.514Z,4.93
2018-12-09T02:44:30.020Z,3.93
2018-12-09T02:46:59.487Z,5.33
2018-12-09T02:49:29.020Z,8.97
2018-12-09T02:51:59.467Z,4.47
2018-12-09T02:54:30.083Z,6.70
2018-12-09T02:57:01.511Z,5.83
2018-12-09T02:59:30.967Z,4.97
2018-12-09T03:02:00.940Z,7.87
2018-12-09T03:04:30.439Z,3.57
2018-12-09T03:06:59.866Z,5.00
2018-12-09T03:09:29.392Z,4.60
2018-12-09T03:11:59.247Z,4.07
2018-12-09T03:14:30.277Z,4.33
2018-12-09T03:16:59.812Z,4.20
2018-12-09T03:19:29.727Z,3.00
2018-12-09T03:21:59.368Z,4.37
2018-12-09T03:24:30.027Z,4.87
2018-12-09T03:26:59.499Z,3.50
2018-12-09T03:29:29.896Z,3.23
2018-12-09T03:32:00.400Z,3.00
2018-12-09T03:34:31.262Z,3.10
2018-12-09T03:37:00.768Z,3.40
2018-12-09T03:39:30.224Z,4.43
2018-12-09T03:41:59.774Z,2.93
2018-12-09T03:44:29.327Z,3.50
2018-12-09T03:46:58.860Z,3.00
2018-12-09T03:49:28.442Z,2.60
2018-12-09T03:51:58.856Z,2.87
2018-12-09T03:54:29.003Z,3.30
2018-12-09T03:56:59.594Z,3.07
2018-12-09T03:59:29.174Z,3.10
2018-12-09T04:01:58.694Z,3.50
2018-12-09T04:04:27.836Z,3.33
2018-12-09T04:06:57.900Z,3.43
2018-12-09T04:09:28.466Z,2.83
2018-12-09T04:11:59.294Z,2.80
2018-12-09T04:14:30.112Z,3.07
2018-12-09T04:20:05.940Z,2.73
2018-12-09T04:50:13.443Z,2.77
2018-12-09T04:52:42.571Z,2.43
2018-12-09T04:55:12.719Z,2.37
2018-12-09T04:57:42.915Z,2.33
2018-12-09T05:00:18.458Z,2.80
2018-12-09T07:46:30.672Z,2.40
2018-12-09T07:49:00.614Z,2.23
2018-12-09T07:51:30.146Z,2.13
2018-12-09T07:53:59.650Z,14.17
2018-12-09T07:56:29.252Z,6.87
2018-12-09T07:58:58.777Z,2.57
2018-12-09T08:01:27.964Z,2.50
2018-12-09T08:03:57.006Z,2.30
2018-12-09T08:06:26.078Z,2.30
2018-12-09T08:08:56.949Z,2.10
2018-12-09T08:11:26.814Z,2.53
2018-12-09T08:13:56.318Z,2.53
2018-12-09T08:16:25.841Z,2.47
2018-12-09T08:18:55.814Z,2.57
2018-12-09T08:21:25.319Z,1.97
2018-12-09T08:23:54.466Z,2.17
2018-12-09T08:26:24.455Z,2.67
2018-12-09T08:28:54.035Z,1.93
2018-12-09T08:31:23.177Z,2.70
2018-12-09T08:33:52.619Z,1.93
2018-12-09T08:36:21.922Z,2.17
2018-12-09T08:38:51.397Z,2.23
2018-12-09T08:41:23.522Z,2.40
2018-12-09T08:43:52.954Z,2.10
2018-12-09T08:46:22.238Z,2.60
2018-12-09T08:48:51.663Z,2.37
2018-12-09T08:51:21.255Z,2.40
2018-12-09T08:53:50.859Z,2.57
2018-12-09T08:56:20.418Z,2.73
2018-12-09T08:58:49.918Z,2.53
2018-12-09T09:01:19.451Z,2.50
2018-12-09T09:03:48.954Z,2.33
2018-12-09T09:06:18.459Z,2.03
2018-12-09T09:08:47.967Z,2.30
2018-12-09T09:11:17.510Z,2.23
2018-12-09T09:13:47.032Z,2.27
2018-12-09T09:16:16.535Z,2.20
2018-12-09T09:18:46.040Z,1.90
2018-12-09T09:21:15.559Z,2.80
2018-12-09T09:23:45.094Z,2.17
2018-12-09T09:26:14.587Z,2.57
2018-12-09T09:28:44.094Z,2.07
2018-12-09T09:31:13.590Z,2.20
2018-12-09T09:33:44.986Z,1.70
2018-12-09T09:36:14.955Z,2.10
2018-12-09T09:38:44.449Z,2.07
2018-12-09T09:41:13.983Z,1.70
2018-12-09T09:43:44.484Z,2.10
2018-12-09T09:46:14.022Z,4.27
2018-12-09T09:48:43.547Z,2.80
2018-12-09T09:51:13.050Z,2.73
2018-12-09T09:53:42.602Z,2.40
2018-12-09T09:56:12.127Z,2.73
2018-12-09T09:58:41.829Z,2.80
2018-12-09T10:01:11.351Z,2.70
2018-12-09T10:03:40.858Z,2.90
2018-12-09T10:06:11.479Z,2.77
2018-12-09T10:08:40.654Z,2.57
2018-12-09T10:11:10.067Z,2.27
2018-12-09T10:13:39.563Z,2.30
2018-12-09T10:16:09.126Z,1.77
2018-12-09T10:18:38.619Z,2.87
2018-12-09T10:21:08.118Z,2.00
2018-12-09T10:23:37.695Z,3.10
2018-12-09T10:26:07.246Z,2.30
2018-12-09T10:28:36.743Z,2.53
2018-12-09T10:31:06.346Z,2.70
2018-12-09T10:33:35.882Z,2.87
2018-12-09T10:36:05.386Z,2.60
2018-12-09T10:38:34.682Z,3.03
2018-12-09T10:41:04.139Z,3.47
2018-12-09T10:43:33.694Z,5.47
2018-12-09T10:46:03.244Z,4.00
2018-12-09T10:48:32.791Z,4.40
2018-12-09T10:51:02.340Z,2.67
2018-12-09T10:53:33.662Z,3.40
2018-12-09T10:56:03.231Z,3.33
2018-12-09T10:58:33.367Z,2.60
2018-12-09T11:01:08.919Z,2.87
2018-12-09T11:03:38.981Z,4.67
2018-12-09T11:06:08.246Z,5.50
2018-12-09T11:08:37.671Z,3.10
2018-12-09T11:11:06.840Z,2.93
2018-12-09T11:13:36.370Z,3.40
2018-12-09T11:16:05.914Z,3.43
2018-12-09T11:18:35.428Z,3.03
2018-12-09T11:21:04.995Z,3.00
2018-12-09T11:23:34.535Z,3.33
2018-12-09T11:26:04.079Z,2.57
2018-12-09T11:28:33.602Z,2.30
2018-12-09T11:31:03.138Z,2.47
2018-12-09T11:33:34.090Z,4.83
2018-12-09T11:36:03.786Z,3.33
2018-12-09T11:38:33.314Z,3.90
2018-12-09T11:41:02.853Z,4.33
2018-12-09T11:43:32.390Z,2.27
2018-12-09T11:46:03.378Z,2.60
2018-12-09T11:48:33.326Z,3.83
2018-12-09T11:51:02.850Z,4.27
2018-12-09T11:53:32.411Z,7.70
2018-12-09T11:56:01.958Z,3.93
2018-12-09T11:58:31.502Z,3.80
2018-12-09T12:01:01.478Z,2.93
2018-12-09T12:03:32.154Z,3.43
2018-12-09T12:06:02.030Z,2.90
2018-12-09T12:08:31.679Z,2.03
2018-12-09T12:11:01.198Z,2.40
2018-12-09T12:13:30.723Z,2.03
2018-12-09T12:16:00.236Z,1.97
2018-12-09T12:18:29.429Z,1.90
2018-12-09T12:20:58.894Z,1.43
2018-12-09T12:23:28.476Z,1.53
2018-12-09T12:25:58.398Z,1.80
2018-12-09T12:28:27.887Z,2.00
2018-12-09T12:30:58.569Z,2.03
2018-12-09T12:33:28.136Z,2.17
2018-12-09T12:35:57.700Z,1.93
2018-12-09T12:38:27.283Z,1.53
2018-12-09T12:40:56.815Z,2.47
2018-12-09T12:43:26.420Z,2.27
2018-12-09T12:45:56.453Z,2.97
2018-12-09T12:48:26.837Z,3.27
2018-12-09T12:50:56.608Z,2.63
2018-12-09T12:53:26.617Z,2.87
2018-12-09T12:55:56.845Z,2.87
2018-12-09T12:58:26.315Z,2.73
2018-12-09T13:00:55.848Z,3.40
2018-12-09T13:03:26.439Z,3.40
2018-12-09T13:05:56.367Z,3.07
2018-12-09T13:08:26.430Z,3.13
2018-12-09T13:10:55.963Z,3.00
2018-12-09T13:13:25.119Z,2.73
2018-12-09T13:15:54.635Z,3.50
2018-12-09T13:18:23.802Z,2.07
2018-12-09T13:20:53.275Z,4.83
2018-12-09T13:23:22.804Z,4.87
2018-12-09T13:25:52.425Z,3.87
2018-12-09T13:28:21.859Z,2.97
2018-12-09T13:30:51.030Z,2.73
2018-12-09T13:33:20.139Z,2.67
2018-12-09T13:35:50.094Z,2.47
2018-12-09T13:38:19.254Z,2.63
2018-12-09T13:40:48.719Z,2.90
2018-12-09T13:43:18.255Z,2.60
2018-12-09T13:45:47.410Z,3.23
2018-12-09T13:48:16.530Z,3.50
2018-12-09T13:50:47.352Z,3.40
2018-12-09T13:53:16.921Z,3.57
2018-12-09T13:55:46.070Z,3.63
2018-12-09T13:58:15.514Z,3.57
2018-12-09T14:00:44.714Z,3.40
2018-12-09T14:03:14.189Z,2.50
2018-12-09T14:05:43.731Z,3.13
2018-12-09T14:08:12.913Z,2.47
2018-12-09T14:10:41.995Z,3.47
2018-12-09T14:13:11.503Z,4.00
2018-12-09T14:15:41.031Z,3.47
2018-12-09T14:18:10.194Z,3.30
2018-12-09T14:20:39.688Z,5.30
2018-12-09T14:23:09.530Z,4.40
2018-12-09T14:25:39.054Z,5.50
2018-12-09T14:28:08.616Z,5.63
2018-12-09T14:30:38.155Z,8.17
2018-12-09T14:33:08.002Z,6.30
2018-12-09T14:35:37.168Z,4.60
2018-12-09T14:38:06.620Z,4.87
2018-12-09T14:40:35.778Z,4.53
2018-12-09T14:43:05.623Z,4.23
2018-12-09T14:45:35.187Z,4.10
2018-12-09T14:48:04.343Z,5.67
2018-12-09T14:50:33.775Z,7.63
2018-12-09T14:53:02.939Z,6.40
2018-12-09T14:55:32.010Z,7.80
2018-12-09T14:58:01.078Z,12.43
2018-12-09T15:00:30.571Z,18.47
2018-12-09T15:03:00.930Z,17.97
2018-12-09T15:05:30.055Z,9.40
2018-12-09T15:07:59.158Z,8.47
2018-12-09T15:10:28.243Z,5.07
2018-12-09T15:12:58.144Z,5.20
2018-12-09T15:15:27.331Z,5.77
2018-12-09T15:17:56.434Z,6.63
2018-12-09T15:20:25.875Z,10.07
2018-12-09T15:22:56.508Z,11.50
2018-12-09T15:25:26.046Z,10.70
2018-12-09T15:27:55.594Z,10.03
2018-12-09T15:30:24.754Z,8.10
2018-12-09T15:32:53.818Z,8.23
2018-12-09T15:35:22.894Z,7.97
2018-12-09T15:37:51.966Z,8.00
2018-12-09T15:40:21.590Z,12.43
2018-12-09T15:42:52.098Z,13.47
2018-12-09T15:45:21.563Z,8.17
2018-12-09T15:47:51.111Z,9.47
2018-12-09T15:50:20.679Z,9.53
2018-12-09T15:52:50.215Z,9.37
2018-12-09T15:55:19.763Z,9.60
2018-12-09T15:57:48.930Z,9.23
2018-12-09T16:00:18.413Z,7.50
2018-12-09T16:02:47.563Z,6.87
2018-12-09T16:05:16.627Z,5.40
2018-12-09T16:07:45.722Z,6.60
2018-12-09T16:10:14.820Z,7.23
2018-12-09T16:12:44.255Z,6.17
2018-12-09T16:15:13.803Z,5.33
2018-12-09T16:17:43.411Z,6.10
2018-12-09T16:20:13.146Z,6.40
2018-12-09T16:22:42.615Z,6.67
2018-12-09T16:25:12.178Z,6.23
2018-12-09T16:27:41.310Z,8.33
2018-12-09T16:30:10.771Z,8.80
2018-12-09T16:32:39.950Z,7.97
2018-12-09T16:35:10.163Z,10.17
2018-12-09T16:37:40.092Z,9.33
2018-12-09T16:40:09.647Z,8.10
2018-12-09T16:42:38.799Z,9.07
2018-12-09T16:45:07.958Z,7.23
2018-12-09T16:47:37.105Z,8.33
2018-12-09T16:50:07.328Z,7.73
2018-12-09T16:52:36.896Z,9.23
2018-12-09T16:55:06.726Z,9.07
2018-12-09T16:57:35.891Z,11.97
2018-12-09T17:00:06.863Z,12.20
2018-12-09T17:02:36.031Z,12.83
2018-12-09T17:05:05.859Z,11.27
2018-12-09T17:07:42.049Z,8.43
2018-12-09T17:10:07.336Z,8.73
2018-12-09T17:12:36.907Z,8.80
2018-12-09T17:15:07.206Z,7.50
2018-12-09T17:17:36.266Z,8.80
2018-12-09T17:20:06.695Z,7.40
2018-12-09T17:22:37.192Z,8.27
2018-12-09T17:25:06.375Z,7.10
2018-12-09T17:27:35.454Z,6.63
2018-12-09T17:30:05.727Z,6.90
2018-12-09T17:32:35.318Z,6.63
2018-12-09T17:35:04.797Z,6.07
2018-12-09T17:37:34.243Z,7.30
2018-12-09T17:40:04.410Z,7.67
2018-12-09T17:42:33.995Z,9.80
2018-12-09T17:45:03.223Z,10.80
2018-12-09T17:47:32.743Z,8.60
2018-12-09T17:50:02.428Z,8.90
2018-12-09T17:52:31.968Z,9.13
2018-12-09T17:55:01.490Z,8.73
2018-12-09T17:57:32.144Z,9.30
2018-12-09T18:00:01.819Z,13.17
2018-12-09T18:02:32.456Z,7.30
2018-12-09T18:05:02.102Z,9.93
2018-12-09T18:07:31.629Z,9.70
2018-12-09T18:10:00.787Z,8.60
2018-12-09T18:12:30.228Z,8.70
2018-12-09T18:14:59.386Z,7.80
2018-12-09T18:17:28.824Z,8.30
2018-12-09T18:19:58.350Z,6.57
2018-12-09T18:22:27.903Z,6.50
2018-12-09T18:24:57.059Z,6.60
2018-12-09T18:27:26.515Z,7.00
2018-12-09T18:29:56.092Z,5.70
2018-12-09T18:32:26.638Z,6.03
2018-12-09T18:34:56.580Z,5.93
2018-12-09T18:37:25.732Z,4.93
2018-12-09T18:39:55.198Z,5.10
2018-12-09T18:42:24.763Z,6.20
2018-12-09T18:44:54.291Z,6.23
2018-12-09T18:47:23.855Z,5.13
2018-12-09T18:49:53.015Z,6.20
2018-12-09T18:52:22.098Z,4.10
2018-12-09T18:54:51.615Z,5.97
2018-12-09T18:57:20.766Z,5.30
2018-12-09T18:59:50.215Z,5.87
2018-12-09T19:02:19.819Z,5.17
2018-12-09T19:04:49.480Z,6.27
2018-12-09T19:07:18.946Z,5.97
2018-12-09T19:09:48.575Z,6.63
2018-12-09T19:12:17.781Z,5.00
2018-12-09T19:14:47.263Z,5.47
2018-12-09T19:17:16.911Z,6.33
2018-12-09T19:19:46.408Z,5.67
2018-12-09T19:22:15.844Z,6.30
2018-12-09T19:24:45.013Z,4.83
2018-12-09T19:27:14.431Z,6.93
2018-12-09T19:29:47.778Z,5.10
2018-12-09T19:32:20.991Z,4.87
2018-12-09T19:34:53.110Z,5.27
2018-12-09T19:37:25.431Z,4.00
2018-12-09T19:40:03.505Z,4.63
2018-12-09T19:42:45.383Z,5.93
2018-12-09T19:45:17.652Z,6.27
2018-12-09T19:47:52.385Z,5.93
2018-12-09T19:50:26.675Z,6.00
2018-12-09T19:53:03.064Z,6.20
2018-12-09T19:55:34.222Z,5.97
2018-12-09T19:58:06.455Z,5.07
2018-12-09T20:00:43.226Z,6.43
2018-12-09T20:03:14.712Z,5.83
2018-12-09T20:05:52.502Z,6.07
2018-12-09T20:08:24.819Z,5.10
2018-12-09T20:10:54.287Z,5.70
2018-12-09T20:13:25.561Z,5.50
2018-12-09T20:15:55.123Z,4.83
2018-12-09T20:18:24.615Z,4.73
2018-12-09T20:20:56.035Z,5.23
2018-12-09T20:23:25.766Z,5.47
2018-12-09T20:25:55.307Z,5.60
2018-12-09T20:28:24.868Z,6.03
2018-12-09T20:30:54.169Z,6.47
2018-12-09T20:33:26.162Z,4.87
2018-12-09T20:35:55.796Z,6.63
2018-12-09T20:38:24.870Z,7.30
2018-12-09T20:40:53.955Z,8.23
2018-12-09T20:43:23.408Z,8.27
2018-12-09T20:45:52.939Z,8.47
2018-12-09T20:48:22.191Z,7.53
2018-12-09T20:50:51.631Z,9.67
2018-12-09T20:53:20.782Z,6.87
2018-12-09T20:55:50.308Z,7.07
2018-12-09T20:58:19.971Z,8.40
2018-12-09T21:00:49.186Z,7.33
2018-12-09T21:05:59.416Z,5.73
2018-12-09T21:08:28.596Z,6.50
2018-12-09T21:10:58.163Z,6.07
2018-12-09T21:13:27.721Z,6.50
2018-12-09T21:15:56.879Z,6.40
2018-12-09T21:18:27.502Z,4.50
2018-12-09T21:20:57.137Z,5.17
2018-12-09T21:23:26.695Z,6.43
2018-12-09T21:25:56.246Z,4.43
2018-12-09T21:28:26.146Z,4.87
2018-12-09T21:30:55.981Z,4.07
2018-12-09T21:33:25.650Z,3.40
2018-12-09T21:35:55.431Z,3.97
2018-12-09T21:38:24.583Z,4.40
2018-12-09T21:40:53.673Z,3.80
2018-12-09T21:43:23.322Z,4.07
2018-12-09T21:45:52.858Z,4.33
2018-12-09T21:48:22.371Z,3.00
2018-12-09T21:50:51.933Z,4.20
2018-12-09T21:53:21.430Z,2.70
2018-12-09T21:55:51.223Z,3.50
2018-12-09T21:58:20.790Z,2.90
2018-12-09T22:00:50.363Z,2.90
2018-12-09T22:03:19.879Z,2.27
2018-12-09T22:05:49.419Z,2.00
2018-12-09T22:08:18.983Z,2.10
2018-12-09T22:10:48.182Z,2.40
2018-12-09T22:13:18.058Z,2.17
2018-12-09T22:15:47.244Z,1.70
2018-12-09T22:18:16.690Z,1.73
2018-12-09T22:20:46.535Z,2.10
2018-12-09T22:23:15.690Z,1.90
2018-12-09T22:25:45.723Z,1.90
2018-12-09T22:28:14.815Z,1.90
2018-12-09T22:30:43.894Z,1.80
2018-12-09T22:33:13.341Z,2.00
2018-12-09T22:35:42.785Z,1.63
2018-12-09T22:38:12.243Z,1.90
2018-12-09T22:40:41.759Z,2.00
2018-12-09T22:43:11.291Z,2.50
2018-12-09T22:45:40.474Z,1.90
2018-12-09T22:48:09.903Z,2.47
2018-12-09T22:50:39.535Z,2.60
2018-12-09T22:53:09.013Z,2.87
2018-12-09T22:55:38.535Z,2.13
2018-12-09T22:58:08.075Z,2.03
2018-12-09T23:00:40.080Z,2.20
2018-12-09T23:03:11.367Z,2.10
2018-12-09T23:05:40.943Z,1.77
2018-12-09T23:08:10.467Z,1.40
2018-12-09T23:10:39.675Z,1.63
2018-12-09T23:13:09.132Z,1.23
2018-12-09T23:15:38.659Z,1.40
2018-12-09T23:18:08.551Z,1.60
2018-12-09T23:20:37.720Z,1.30
2018-12-09T23:23:07.171Z,1.27
2018-12-09T23:25:36.326Z,1.10
2018-12-09T23:28:05.808Z,1.37
2018-12-09T23:30:35.381Z,1.27
2018-12-09T23:33:04.903Z,1.10
2018-12-09T23:35:34.433Z,1.43
2018-12-09T23:38:04.447Z,1.17
2018-12-09T23:40:33.791Z,1.60
2018-12-09T23:43:03.783Z,1.57
2018-12-09T23:45:33.307Z,1.43
2018-12-09T23:48:02.486Z,1.30
2018-12-09T23:50:31.939Z,1.50
2018-12-09T23:53:01.486Z,1.20
2018-12-09T23:55:30.690Z,1.70
2018-12-09T23:58:00.122Z,1.63
